King, North Carolina
Current Conditions -  °F | °C
As of 10:54 AM on Saturday 25 Oct 2014 (Local Time) from KINT Reporting Station
Clear Clear  
Wind Chill: 63°   Ceiling: Unl
Heat Index: 63°   Visibility: 10mi
Dew Point: 39°   Wind: 8mph
Humidity: 41%   Direction: 350°N
Pressure: 30.05"   Gusts: NA
Location:  36.28°N, 80.36°W
Report Text: KINT 251454Z 35007KT 10SM CLR 17/04 A3005 RMK AO2 SLP172 T01720039 51008
Loading
Personal Weather Stations






























Interactive Weather Map
Tropical Storm Tracking
New forecast layout! Learn more

10-Day Weather Forecast

Advertisements
Track Severe Weather on mobile